Time;durP1;ratioP1;P1;durP2;ratioP2;P2;SDS_P1;SDS_P2;PMS_P1;PMS_P2;Temp;Humidity;BMP_temperature;BMP_pressure;BME280_temperature;BME280_humidity;BME280_pressure;Samples;Min_cycle;Max_cycle;Signal;HPM_P1;HPM_P2
2021/09/29 00:00:57;;;;;;;25.70;16.13;;;;;;;14.05;69.81;100835.78;4879299;28;96833;-86
2021/09/29 00:03:23;;;;;;;21.42;15.93;;;;;;;13.95;69.90;100834.41;4895399;28;97672;-86
2021/09/29 00:05:49;;;;;;;23.67;15.25;;;;;;;13.98;70.10;100835.13;4869092;28;97317;-86
2021/09/29 00:08:15;;;;;;;21.30;16.55;;;;;;;13.99;69.75;100830.72;4879810;28;96795;-86
2021/09/29 00:10:41;;;;;;;23.75;14.60;;;;;;;13.98;69.92;100831.66;4879329;28;97247;-86
2021/09/29 00:13:07;;;;;;;25.50;15.77;;;;;;;13.92;70.02;100832.75;4874810;28;101331;-86
2021/09/29 00:15:33;;;;;;;22.42;15.85;;;;;;;13.97;69.65;100837.84;4895613;28;97631;-86
2021/09/29 00:17:59;;;;;;;22.55;16.55;;;;;;;13.90;69.74;100823.16;4869226;28;97210;-86
2021/09/29 00:20:25;;;;;;;24.45;16.48;;;;;;;13.82;70.03;100828.78;4895937;28;97114;-85
2021/09/29 00:22:51;;;;;;;23.23;16.33;;;;;;;13.79;70.18;100821.84;4889836;28;97663;-85
2021/09/29 00:25:17;;;;;;;22.98;16.15;;;;;;;13.78;70.27;100828.00;4876768;28;101147;-85
2021/09/29 00:27:44;;;;;;;30.30;16.90;;;;;;;13.75;70.37;100827.28;4895490;28;96828;-86
2021/09/29 00:30:10;;;;;;;22.33;15.85;;;;;;;13.70;70.04;100816.03;4878077;28;97245;-86
2021/09/29 00:32:40;;;;;;;24.23;18.20;;;;;;;13.77;70.13;100821.03;4879521;28;101097;-86
2021/09/29 00:35:08;;;;;;;20.83;15.80;;;;;;;13.68;70.31;100829.31;4861371;28;101503;-86
2021/09/29 00:37:34;;;;;;;21.60;16.65;;;;;;;13.63;69.90;100825.13;4895756;28;96730;-86
2021/09/29 00:39:59;;;;;;;23.95;15.93;;;;;;;13.73;69.96;100819.44;4878601;28;97179;-86
2021/09/29 00:42:25;;;;;;;27.15;16.30;;;;;;;13.59;69.92;100819.13;4879290;28;101772;-86
2021/09/29 00:44:51;;;;;;;20.80;15.48;;;;;;;13.67;69.84;100824.97;4878437;28;98352;-85
2021/09/29 00:47:18;;;;;;;21.55;16.52;;;;;;;13.65;69.72;100820.66;4892384;28;96987;-86
2021/09/29 00:49:44;;;;;;;23.73;15.40;;;;;;;13.59;69.82;100817.31;4879533;28;98598;-87
2021/09/29 00:52:10;;;;;;;20.95;16.27;;;;;;;13.48;70.21;100821.31;4878549;28;100310;-86
2021/09/29 00:54:35;;;;;;;17.90;15.90;;;;;;;13.65;69.54;100818.88;4878847;28;100358;-86
2021/09/29 00:57:02;;;;;;;23.42;15.35;;;;;;;13.51;70.10;100829.09;4878240;28;98286;-86
2021/09/29 00:59:27;;;;;;;23.45;15.82;;;;;;;13.57;69.51;100820.94;4895071;28;96928;-86
2021/09/29 01:01:54;;;;;;;18.58;15.88;;;;;;;13.42;70.66;100814.47;4878566;28;100615;-86
2021/09/29 01:04:22;;;;;;;22.55;16.63;;;;;;;13.50;70.01;100816.84;4878963;28;97941;-86
2021/09/29 01:07:08;;;;;;;20.90;16.75;;;;;;;13.35;70.50;100812.97;4860485;28;96863;-86
2021/09/29 01:10:01;;;;;;;19.85;15.27;;;;;;;13.34;70.91;100817.41;4846336;28;96932;-86
2021/09/29 01:12:46;;;;;;;20.70;16.38;;;;;;;13.33;70.62;100805.13;4892466;28;96884;-86
2021/09/29 01:15:15;;;;;;;17.80;15.73;;;;;;;13.32;70.71;100802.53;4859114;28;100445;-85
2021/09/29 01:17:44;;;;;;;22.55;15.65;;;;;;;13.31;70.42;100803.47;4862586;28;96753;-86
2021/09/29 01:20:15;;;;;;;21.80;15.45;;;;;;;13.26;70.26;100798.34;4884846;28;96705;-86
2021/09/29 01:23:01;;;;;;;29.17;16.73;;;;;;;13.24;70.59;100794.06;4888089;28;100759;-86
2021/09/29 01:25:35;;;;;;;21.83;15.07;;;;;;;13.19;70.82;100799.50;4877483;28;98417;-86
2021/09/29 01:28:01;;;;;;;18.98;15.35;;;;;;;13.23;70.64;100787.03;4868146;28;96641;-86
2021/09/29 01:30:27;;;;;;;23.80;16.40;;;;;;;13.14;70.49;100789.09;4873892;28;96927;-86
2021/09/29 01:32:54;;;;;;;22.05;16.33;;;;;;;13.27;70.10;100797.47;4888116;28;98122;-84
2021/09/29 01:35:20;;;;;;;22.80;15.52;;;;;;;13.12;70.35;100798.00;4878542;28;99635;-86
2021/09/29 01:37:46;;;;;;;21.33;15.95;;;;;;;13.22;70.18;100793.25;4863095;28;96745;-86
2021/09/29 01:40:12;;;;;;;26.63;15.43;;;;;;;13.09;70.53;100790.22;4875624;28;96928;-86
2021/09/29 01:42:38;;;;;;;21.63;15.70;;;;;;;13.00;70.56;100787.91;4871647;28;99246;-87
2021/09/29 01:45:04;;;;;;;18.48;14.40;;;;;;;13.02;70.34;100784.28;4877532;28;100331;-86
2021/09/29 01:47:30;;;;;;;19.23;14.93;;;;;;;13.00;70.42;100782.63;4891650;28;96787;-86
2021/09/29 01:50:00;;;;;;;20.05;14.85;;;;;;;12.98;70.62;100781.84;4858252;28;97182;-87
2021/09/29 01:52:28;;;;;;;21.55;16.77;;;;;;;13.01;69.76;100782.59;4879827;28;100438;-85
2021/09/29 01:54:55;;;;;;;19.55;15.77;;;;;;;12.82;70.67;100782.38;4879713;28;100070;-85
2021/09/29 01:57:21;;;;;;;21.25;16.23;;;;;;;12.85;70.78;100784.91;4896756;28;96903;-86
2021/09/29 01:59:47;;;;;;;19.95;16.27;;;;;;;12.78;71.28;100790.47;4888985;28;97303;-86
2021/09/29 02:02:13;;;;;;;21.38;15.60;;;;;;;12.83;70.49;100778.84;4869188;28;99595;-86
2021/09/29 02:04:50;;;;;;;23.58;16.65;;;;;;;12.73;71.05;100784.50;4880375;28;96796;-85
2021/09/29 02:07:17;;;;;;;22.23;16.45;;;;;;;12.72;71.31;100777.50;4881495;28;96647;-86
2021/09/29 02:09:43;;;;;;;18.63;15.10;;;;;;;12.72;70.65;100777.50;4899410;28;96744;-85
2021/09/29 02:12:09;;;;;;;22.23;16.90;;;;;;;12.69;71.30;100775.84;4883004;28;99811;-86
2021/09/29 02:14:35;;;;;;;22.02;14.82;;;;;;;12.64;70.90;100776.00;4882405;28;99653;-87
2021/09/29 02:17:00;;;;;;;19.17;14.75;;;;;;;12.63;70.79;100776.06;4883917;28;96793;-85
2021/09/29 02:19:26;;;;;;;21.33;15.63;;;;;;;12.65;71.01;100779.47;4899630;28;97226;-85
2021/09/29 02:21:53;;;;;;;19.27;15.77;;;;;;;12.69;70.40;100760.03;4900190;28;96567;-86
2021/09/29 02:24:20;;;;;;;18.95;15.80;;;;;;;12.65;70.73;100759.31;4884570;28;99619;-86
2021/09/29 02:26:45;;;;;;;21.15;16.33;;;;;;;12.56;70.83;100771.91;4884707;28;97568;-86
2021/09/29 02:29:12;;;;;;;19.05;15.50;;;;;;;12.51;70.86;100768.56;4865416;28;96965;-84
2021/09/29 02:31:38;;;;;;;20.60;15.60;;;;;;;12.51;70.40;100763.31;4868929;28;99861;-87
2021/09/29 02:34:04;;;;;;;19.35;15.70;;;;;;;12.50;70.89;100769.50;4893834;28;98967;-86
2021/09/29 02:36:29;;;;;;;20.67;15.30;;;;;;;12.44;70.70;100766.16;4885688;28;96766;-85
2021/09/29 02:38:55;;;;;;;20.67;16.02;;;;;;;12.37;71.02;100762.03;4901467;28;96740;-85
2021/09/29 02:41:21;;;;;;;18.20;16.15;;;;;;;12.42;70.85;100768.00;4899626;28;97061;-83
2021/09/29 02:43:47;;;;;;;18.98;16.10;;;;;;;12.41;70.66;100761.00;4859430;28;99036;-85
2021/09/29 02:46:13;;;;;;;22.88;15.55;;;;;;;12.40;70.70;100761.06;4886572;28;96646;-84
2021/09/29 02:48:39;;;;;;;20.20;16.00;;;;;;;12.35;71.02;100761.22;4886448;28;96926;-84
2021/09/29 02:51:05;;;;;;;24.35;17.10;;;;;;;12.32;71.12;100749.94;4866436;28;99223;-84
2021/09/29 02:53:30;;;;;;;19.25;16.10;;;;;;;12.24;70.88;100756.31;4886887;28;96701;-83
2021/09/29 02:55:57;;;;;;;19.13;15.73;;;;;;;12.29;70.96;100755.31;4886249;28;96744;-83
2021/09/29 02:58:23;;;;;;;21.45;16.17;;;;;;;12.30;70.87;100754.38;4869032;28;96733;-84
2021/09/29 03:00:50;;;;;;;19.67;15.73;;;;;;;12.24;71.00;100755.44;4888257;28;99719;-83
2021/09/29 03:03:16;;;;;;;17.30;15.45;;;;;;;12.25;70.56;100762.47;4887795;28;99436;-83
2021/09/29 03:05:41;;;;;;;17.65;14.40;;;;;;;12.20;70.20;100754.69;4886805;28;97118;-85
2021/09/29 03:08:07;;;;;;;18.80;16.25;;;;;;;12.16;70.46;100754.88;4894674;28;96820;-82
2021/09/29 03:10:33;;;;;;;23.60;15.75;;;;;;;12.21;70.94;100753.78;4888219;28;96702;-83
2021/09/29 03:12:58;;;;;;;21.05;15.85;;;;;;;12.09;70.65;100755.97;4879577;28;99262;-82
2021/09/29 03:15:24;;;;;;;19.90;15.68;;;;;;;12.11;70.36;100757.66;4876455;28;96603;-83
2021/09/29 03:17:49;;;;;;;19.85;14.93;;;;;;;12.00;71.11;100746.63;4893945;28;96418;-83
2021/09/29 03:20:15;;;;;;;16.80;14.45;;;;;;;12.01;70.92;100748.31;4892258;28;99621;-83
2021/09/29 03:22:40;;;;;;;17.50;14.43;;;;;;;12.00;70.90;100747.47;4906105;28;96547;-83
2021/09/29 03:25:11;;;;;;;18.15;14.20;;;;;;;11.99;70.72;100747.53;4892101;28;96465;-83
2021/09/29 03:30:36;;;;;;;17.20;12.68;;;;;;;11.95;70.71;100746.75;5645283;23;98393;-87
2021/09/29 03:33:01;;;;;;;20.80;14.23;;;;;;;11.89;71.01;100749.59;4899849;28;96837;-83
2021/09/29 03:35:27;;;;;;;20.88;14.80;;;;;;;11.90;70.63;100748.69;4901991;28;96755;-84
2021/09/29 03:37:53;;;;;;;20.52;14.88;;;;;;;11.81;70.46;100743.72;4888628;28;96831;-84
2021/09/29 03:40:18;;;;;;;18.60;14.02;;;;;;;11.77;71.14;100745.56;4880676;28;96780;-83
2021/09/29 03:42:45;;;;;;;15.23;13.45;;;;;;;11.78;71.29;100746.44;4903465;28;96663;-84
2021/09/29 03:45:11;;;;;;;19.33;13.60;;;;;;;11.81;71.46;100734.94;4891374;28;96793;-82
2021/09/29 03:47:40;;;;;;;16.55;13.68;;;;;;;11.86;70.29;100740.94;4869647;28;97822;-82
2021/09/29 03:50:06;;;;;;;16.48;13.40;;;;;;;11.77;70.09;100742.06;4898290;28;99312;-81
2021/09/29 03:52:32;;;;;;;15.65;12.93;;;;;;;11.76;70.43;100745.63;4898706;28;99210;-83
2021/09/29 03:54:58;;;;;;;16.58;13.38;;;;;;;11.70;70.45;100744.03;4915108;28;96499;-80
2021/09/29 03:57:31;;;;;;;20.48;13.65;;;;;;;11.65;70.26;100738.06;4903759;28;95961;-81
2021/09/29 03:59:56;;;;;;;15.82;13.18;;;;;;;11.58;70.66;100736.56;4905385;28;100259;-82
2021/09/29 04:02:22;;;;;;;19.27;13.80;;;;;;;11.60;70.74;100739.97;4906919;28;96687;-81
2021/09/29 05:36:13;;;;;;;15.88;12.82;;;;;;;12.09;68.37;100727.88;4939703;23;96269;-80
2021/09/29 05:38:38;;;;;;;19.38;13.68;;;;;;;12.38;67.57;100716.34;4901652;28;96514;-81
2021/09/29 05:41:04;;;;;;;19.33;13.90;;;;;;;12.24;66.61;100713.34;4920251;28;96815;-84
2021/09/29 05:54:19;;;;;;;16.20;13.30;;;;;;;13.10;63.37;100699.69;4996860;23;98620;-87
2021/09/29 05:56:46;;;;;;;14.90;13.32;;;;;;;12.89;63.77;100696.94;4862469;28;99756;-85
2021/09/29 05:59:11;;;;;;;21.48;13.20;;;;;;;12.96;63.57;100697.56;4879477;28;98322;-86
2021/09/29 06:01:37;;;;;;;20.05;13.45;;;;;;;13.45;62.51;100700.97;4878903;28;97227;-86
2021/09/29 06:04:03;;;;;;;15.73;13.77;;;;;;;14.07;60.34;100701.94;4879910;28;99829;-86
2021/09/29 06:06:28;;;;;;;16.10;13.32;;;;;;;14.26;60.07;100704.66;4880825;28;101182;-84
2021/09/29 06:08:54;;;;;;;23.67;12.95;;;;;;;14.74;58.64;100698.16;4898171;28;97062;-86
2021/09/29 06:11:19;;;;;;;16.33;12.57;;;;;;;14.99;58.22;100700.53;4874712;28;98023;-86
2021/09/29 06:13:45;;;;;;;21.98;13.45;;;;;;;15.17;57.42;100698.81;4887934;28;97796;-87
2021/09/29 06:16:11;;;;;;;14.27;12.57;;;;;;;15.36;56.78;100697.03;4879413;28;98446;-87
2021/09/29 06:18:38;;;;;;;16.08;12.80;;;;;;;15.39;57.10;100701.31;4890979;28;98506;-87
2021/09/29 06:21:04;;;;;;;14.23;12.73;;;;;;;15.40;56.41;100692.44;4858499;28;96886;-86
2021/09/29 06:23:30;;;;;;;17.92;12.10;;;;;;;15.07;57.52;100698.41;4888429;28;99936;-87
2021/09/29 06:25:56;;;;;;;17.75;13.45;;;;;;;14.75;57.68;100694.59;4887272;28;98284;-86
2021/09/29 06:28:21;;;;;;;15.60;12.82;;;;;;;15.07;57.13;100692.25;4893460;28;96936;-87
2021/09/29 06:30:47;;;;;;;17.30;12.27;;;;;;;15.05;57.46;100678.25;4852324;28;97112;-87
2021/09/29 06:33:14;;;;;;;14.38;12.48;;;;;;;15.29;56.51;100681.50;4875713;28;99816;-87
2021/09/29 06:35:40;;;;;;;16.35;12.27;;;;;;;15.69;57.42;100683.09;4887301;28;100445;-78
2021/09/29 06:38:05;;;;;;;14.73;12.57;;;;;;;15.70;57.47;100684.81;4889020;28;97322;-78
2021/09/29 06:40:31;;;;;;;14.18;12.68;;;;;;;15.90;55.65;100672.38;4865739;28;97051;-86
2021/09/29 06:42:58;;;;;;;15.30;12.23;;;;;;;16.09;55.10;100678.47;4870217;28;100383;-86
2021/09/29 06:45:24;;;;;;;19.98;13.68;;;;;;;16.16;54.65;100676.34;4877109;28;101265;-85
2021/09/29 06:47:50;;;;;;;15.93;12.73;;;;;;;16.38;53.90;100684.03;4892327;28;98428;-85
2021/09/29 06:50:18;;;;;;;14.75;13.23;;;;;;;16.54;53.02;100671.69;4904299;28;98060;-85
2021/09/29 06:52:44;;;;;;;18.83;12.18;;;;;;;16.72;52.72;100673.34;4892107;28;101658;-85
2021/09/29 06:55:10;;;;;;;19.77;12.68;;;;;;;16.70;52.61;100667.28;4886296;28;98388;-86
2021/09/29 06:57:36;;;;;;;17.70;12.43;;;;;;;16.84;52.63;100660.38;4865504;28;96927;-86
2021/09/29 07:00:04;;;;;;;16.88;12.70;;;;;;;17.47;51.29;100668.34;4875325;28;97165;-84
2021/09/29 07:02:29;;;;;;;16.02;12.27;;;;;;;17.60;50.09;100669.34;4879647;28;101344;-85
2021/09/29 07:04:55;;;;;;;18.08;13.35;;;;;;;17.18;50.85;100662.03;4888125;28;96833;-85
2021/09/29 07:07:20;;;;;;;13.80;12.35;;;;;;;16.96;51.95;100665.88;4887180;28;97135;-85
2021/09/29 07:09:46;;;;;;;14.93;12.60;;;;;;;17.52;50.55;100660.13;4884285;28;97032;-85
2021/09/29 07:12:11;;;;;;;17.05;12.75;;;;;;;16.86;52.10;100659.38;4904890;28;97268;-85
2021/09/29 07:14:37;;;;;;;15.40;12.82;;;;;;;16.65;52.40;100665.81;4887528;28;101618;-86
2021/09/29 07:17:03;;;;;;;14.68;12.35;;;;;;;17.36;51.76;100662.78;4869932;28;97379;-84
2021/09/29 07:19:28;;;;;;;17.05;12.23;;;;;;;17.76;50.07;100656.03;4901226;28;97793;-84
2021/09/29 07:21:54;;;;;;;16.27;11.90;;;;;;;18.10;49.64;100657.59;4900451;28;98511;-84
2021/09/29 07:24:20;;;;;;;15.48;13.27;;;;;;;17.99;48.92;100657.38;4888708;28;98018;-84
2021/09/29 07:26:46;;;;;;;16.67;12.98;;;;;;;17.64;49.72;100647.00;4881817;28;96970;-84
2021/09/29 07:29:11;;;;;;;17.48;13.60;;;;;;;17.00;50.93;100648.00;4868160;28;96962;-85
2021/09/29 07:31:38;;;;;;;18.88;13.15;;;;;;;17.03;51.42;100649.63;4872679;28;100710;-84
2021/09/29 07:34:04;;;;;;;17.95;12.52;;;;;;;17.68;50.01;100650.31;4888675;28;99623;-84
2021/09/29 07:36:29;;;;;;;20.98;13.05;;;;;;;17.57;50.11;100648.31;4856972;28;98973;-85
2021/09/29 07:38:55;;;;;;;19.08;12.82;;;;;;;17.38;51.02;100652.94;4869226;28;97422;-85
2021/09/29 07:41:21;;;;;;;14.27;12.48;;;;;;;18.17;49.72;100647.44;4889518;28;101285;-84
2021/09/29 07:43:46;;;;;;;19.42;13.13;;;;;;;19.09;47.13;100644.38;4870671;28;101026;-84
2021/09/29 07:46:12;;;;;;;20.40;13.50;;;;;;;19.14;46.23;100628.09;4885136;28;97348;-85
2021/09/29 07:48:37;;;;;;;19.08;13.23;;;;;;;19.92;45.33;100630.09;4885584;28;98269;-84
2021/09/29 07:51:03;;;;;;;13.85;12.45;;;;;;;21.90;41.75;100625.56;4871969;28;101630;-83
2021/09/29 07:53:28;;;;;;;15.93;11.90;;;;;;;23.07;39.89;100621.72;4888798;28;97848;-85
2021/09/29 07:55:55;;;;;;;16.85;13.80;;;;;;;23.43;38.76;100607.13;4872057;28;97404;-86
2021/09/29 07:58:22;;;;;;;17.33;13.38;;;;;;;23.65;37.85;100607.97;4859479;28;97008;-85
2021/09/29 08:00:47;;;;;;;15.15;13.32;;;;;;;22.96;38.72;100611.91;4853634;28;102020;-86
2021/09/29 08:03:13;;;;;;;14.40;12.15;;;;;;;22.68;39.81;100607.88;4871315;28;100273;-85
2021/09/29 08:05:40;;;;;;;13.55;12.15;;;;;;;22.74;39.89;100596.69;4881542;28;98233;-87
2021/09/29 08:08:05;;;;;;;19.05;12.45;;;;;;;22.29;40.00;100593.19;4880227;28;97364;-82
2021/09/29 08:10:32;;;;;;;14.15;12.63;;;;;;;22.01;40.73;100605.16;4871674;28;99233;-82
2021/09/29 08:12:58;;;;;;;22.77;13.18;;;;;;;22.30;40.67;100606.44;4893340;28;98523;-83
2021/09/29 08:15:24;;;;;;;16.83;12.82;;;;;;;21.95;40.85;100605.63;4863913;28;96964;-83
2021/09/29 08:17:50;;;;;;;15.77;12.52;;;;;;;21.91;40.91;100608.53;4872024;28;97650;-81
2021/09/29 08:20:18;;;;;;;14.73;12.15;;;;;;;21.62;41.23;100617.94;4892241;28;97605;-82
2021/09/29 08:22:47;;;;;;;16.55;12.55;;;;;;;21.52;41.59;100617.75;4876519;28;97708;-83
2021/09/29 08:37:58;;;;;;;13.80;11.57;;;;;;;21.97;40.92;100612.56;4878213;28;96874;-83
2021/09/29 08:46:22;;;;;;;14.88;11.80;;;;;;;21.85;41.35;100597.47;4893165;28;97007;-86
2021/09/29 08:48:35;;;;;;;14.68;12.70;;;;;;;21.53;41.43;100602.59;4882820;28;97196;-83
2021/09/29 08:53:58;;;;;;;17.38;12.70;;;;;;;20.85;42.73;100593.34;4884884;28;101356;-82
2021/09/29 09:15:56;;;;;;;12.93;11.48;;;;;;;22.60;40.03;100584.44;4862461;28;101727;-82
2021/09/29 09:18:22;;;;;;;13.88;11.88;;;;;;;22.56;40.41;100582.97;4873368;28;97119;-82
2021/09/29 09:21:00;;;;;;;17.17;12.52;;;;;;;22.79;40.17;100582.94;4857276;28;96902;-82
2021/09/29 09:23:52;;;;;;;13.02;11.63;;;;;;;22.77;39.78;100580.38;4895212;28;97811;-82
2021/09/29 09:26:22;;;;;;;13.27;11.50;;;;;;;22.72;40.20;100585.28;4882738;28;98029;-82
2021/09/29 09:28:49;;;;;;;14.60;12.45;;;;;;;22.87;39.59;100576.97;4885849;28;97075;-82
2021/09/29 09:31:18;;;;;;;11.88;10.65;;;;;;;22.89;39.65;100572.31;4860694;28;97399;-81
2021/09/29 09:33:54;;;;;;;15.27;12.32;;;;;;;22.76;39.84;100567.97;4853419;28;101388;-81
2021/09/29 09:36:36;;;;;;;13.65;12.10;;;;;;;22.46;39.97;100574.00;4876040;28;102091;-81
2021/09/29 09:39:15;;;;;;;16.73;12.27;;;;;;;22.43;40.67;100568.00;4881599;28;96902;-80
2021/09/29 09:41:49;;;;;;;15.88;12.20;;;;;;;21.69;41.94;100569.25;4854060;28;97356;-81
2021/09/29 09:44:22;;;;;;;14.00;11.50;;;;;;;21.37;42.56;100569.03;4882902;28;97667;-81
2021/09/29 09:47:20;;;;;;;16.60;12.05;;;;;;;20.88;43.83;100569.97;4872331;28;101629;-81
2021/09/29 09:49:47;;;;;;;14.80;11.55;;;;;;;21.46;42.97;100565.66;4892667;28;96898;-81
2021/09/29 09:52:15;;;;;;;18.67;12.82;;;;;;;21.82;42.53;100565.66;4876351;28;96958;-81
2021/09/29 09:54:41;;;;;;;20.88;13.35;;;;;;;21.62;42.24;100567.19;4881375;28;97776;-81
2021/09/29 09:57:20;;;;;;;18.73;13.07;;;;;;;20.94;43.40;100564.22;4872961;28;97605;-81
2021/09/29 09:59:53;;;;;;;19.80;12.48;;;;;;;21.11;43.80;100556.75;4907649;28;97288;-82
2021/09/29 10:02:19;;;;;;;17.67;12.32;;;;;;;20.91;44.30;100545.72;4872301;28;96795;-81
2021/09/29 10:04:46;;;;;;;13.75;11.73;;;;;;;20.92;44.82;100547.44;4890103;28;97545;-82
2021/09/29 10:07:12;;;;;;;17.65;13.38;;;;;;;20.41;44.64;100538.72;4856652;28;100807;-82
2021/09/29 10:12:27;;;;;;;15.43;13.32;;;;;;;19.95;46.34;100556.13;4879399;28;97023;-87
2021/09/29 10:28:10;;;;;;;27.38;15.25;;;;;;;18.72;48.89;100564.25;4881929;28;101498;-91
2021/09/29 10:30:45;;;;;;;19.25;15.18;;;;;;;18.12;50.07;100556.53;4866210;28;96818;-90
2021/09/29 10:33:20;;;;;;;20.80;13.77;;;;;;;18.20;50.42;100550.75;4877872;28;97289;-85
2021/09/29 10:36:08;;;;;;;17.65;14.15;;;;;;;18.51;50.08;100542.56;4892243;28;98019;-86
2021/09/29 10:41:22;;;;;;;16.38;13.18;;;;;;;18.25;51.00;100528.25;4894553;28;96922;-78
2021/09/29 10:44:09;;;;;;;22.27;15.40;;;;;;;17.90;51.53;100553.50;4893106;28;96827;-78
2021/09/29 11:28:13;;;;;;;21.77;15.60;;;;;;;17.52;52.90;100536.25;4883235;28;98536;-79
2021/09/29 11:30:45;;;;;;;24.73;15.75;;;;;;;17.77;52.25;100518.81;4891190;28;98573;-79
2021/09/29 11:33:41;;;;;;;20.63;17.13;;;;;;;17.64;52.18;100521.38;4890707;28;101757;-78
2021/09/29 12:09:41;;;;;;;22.77;18.60;;;;;;;16.83;55.16;100508.44;4889317;28;97095;-78
2021/09/29 12:15:00;;;;;;;23.38;18.30;;;;;;;16.55;55.94;100493.22;4876001;28;101498;-77
2021/09/29 12:17:31;;;;;;;23.38;17.85;;;;;;;16.58;56.01;100484.22;4871539;28;101720;-78
2021/09/29 12:20:00;;;;;;;28.38;19.48;;;;;;;16.61;56.30;100474.31;4875544;28;96914;-78
2021/09/29 12:22:31;;;;;;;25.17;19.05;;;;;;;16.48;56.63;100473.28;4891034;28;97855;-78
2021/09/29 12:25:17;;;;;;;21.40;18.90;;;;;;;16.49;56.63;100474.97;4882555;28;97838;-81
2021/09/29 12:30:16;;;;;;;27.40;22.15;;;;;;;16.49;56.26;100488.22;4877078;28;97284;-78
2021/09/29 12:33:03;;;;;;;22.30;19.85;;;;;;;16.14;57.18;100479.59;4873520;28;96825;-78
2021/09/29 12:35:43;;;;;;;23.52;20.98;;;;;;;16.20;57.17;100473.94;4897681;28;100952;-80
2021/09/29 12:38:09;;;;;;;25.00;21.52;;;;;;;16.07;57.56;100485.22;4874868;28;101673;-79
2021/09/29 12:40:37;;;;;;;30.17;22.48;;;;;;;16.04;57.51;100481.91;4874316;28;97333;-80
2021/09/29 12:43:05;;;;;;;31.10;22.05;;;;;;;16.19;57.75;100491.63;4873607;28;97260;-80
2021/09/29 12:45:35;;;;;;;35.15;24.60;;;;;;;16.36;56.79;100482.78;4870100;28;101989;-81
2021/09/29 12:48:03;;;;;;;28.17;24.35;;;;;;;16.29;56.76;100492.00;4856326;28;102316;-81
2021/09/29 12:53:37;;;;;;;28.50;23.95;;;;;;;16.08;57.76;100472.84;4890933;28;97243;-81
2021/09/29 12:56:07;;;;;;;35.30;23.50;;;;;;;16.25;57.44;100466.63;4877405;28;101554;-77
2021/09/29 12:58:33;;;;;;;26.88;23.20;;;;;;;16.15;58.01;100478.66;4854924;28;101151;-82
2021/09/29 13:01:00;;;;;;;24.85;22.00;;;;;;;16.18;58.13;100470.56;4875466;28;96824;-84
2021/09/29 13:03:27;;;;;;;27.23;22.85;;;;;;;16.23;57.67;100472.00;4875809;28;97266;-84
2021/09/29 13:05:52;;;;;;;34.63;24.83;;;;;;;16.14;57.43;100471.66;4876986;28;101155;-83
2021/09/29 13:08:18;;;;;;;34.58;24.23;;;;;;;16.28;57.35;100487.63;4867044;28;101480;-87
2021/09/29 13:10:44;;;;;;;32.83;23.80;;;;;;;16.23;58.02;100481.72;4878710;28;97315;-85
2021/09/29 13:13:11;;;;;;;28.40;23.30;;;;;;;16.17;57.97;100490.88;4890739;28;97228;-83
2021/09/29 13:15:43;;;;;;;27.13;23.70;;;;;;;16.20;58.33;100490.72;4888308;28;98723;-85
2021/09/29 13:18:12;;;;;;;;;;;;;;;16.25;58.11;100483.34;4878243;28;101765;-84
2021/09/29 13:20:39;;;;;;;30.92;26.23;;;;;;;16.33;57.92;100503.28;4854918;28;97263;-85
2021/09/29 13:23:12;;;;;;;29.75;24.30;;;;;;;16.31;58.20;100500.72;4875991;28;96977;-84
2021/09/29 13:36:34;;;;;;;34.78;25.83;;;;;;;15.86;60.08;100475.81;4901281;28;101866;-85
2021/09/29 13:39:11;;;;;;;27.50;24.50;;;;;;;16.02;60.09;100474.03;4873651;28;100071;-84
2021/09/29 13:41:38;;;;;;;30.27;27.02;;;;;;;16.24;58.82;100484.31;4887004;28;97112;-84
2021/09/29 13:44:04;;;;;;;34.42;26.38;;;;;;;16.07;59.79;100485.22;4876211;28;97134;-82
2021/09/29 13:46:30;;;;;;;31.75;26.48;;;;;;;16.06;59.58;100493.25;4874287;28;101710;-83
2021/09/29 13:48:58;;;;;;;31.33;25.40;;;;;;;16.06;59.93;100486.16;4876812;28;100422;-85
2021/09/29 13:51:26;;;;;;;37.20;26.60;;;;;;;16.13;59.83;100489.34;4877172;28;97203;-86
2021/09/29 13:53:53;;;;;;;31.75;26.60;;;;;;;16.06;59.57;100487.97;4874915;28;97225;-85
2021/09/29 13:56:20;;;;;;;31.90;25.63;;;;;;;16.12;59.79;100487.63;4856647;28;102312;-84
2021/09/29 14:28:32;;;;;;;37.00;31.00;;;;;;;15.99;60.82;100484.78;4799652;29;96949;-80
2021/09/29 14:31:14;;;;;;;43.80;35.63;;;;;;;15.91;60.82;100491.41;4887558;28;97312;-84
2021/09/29 14:33:44;;;;;;;43.10;36.45;;;;;;;15.86;61.35;100499.63;4861567;28;97837;-79
2021/09/29 14:36:10;;;;;;;40.17;34.50;;;;;;;16.01;61.17;100493.50;4859484;28;97954;-82
2021/09/29 14:38:36;;;;;;;47.45;39.15;;;;;;;16.12;60.62;100498.22;4875016;28;98775;-85
2021/09/29 14:41:01;;;;;;;43.80;37.22;;;;;;;16.00;60.97;100493.59;4875780;28;98309;-84
2021/09/29 14:43:27;;;;;;;45.97;38.38;;;;;;;15.92;61.10;100501.09;4874127;28;96956;-83
2021/09/29 14:45:52;;;;;;;49.20;38.22;;;;;;;15.81;61.16;100491.91;4874417;28;97263;-85
2021/09/29 14:48:18;;;;;;;48.40;40.25;;;;;;;15.79;61.26;100492.94;4878520;28;100253;-82
2021/09/29 14:50:49;;;;;;;48.40;40.45;;;;;;;15.76;61.26;100485.16;4875962;28;101475;-86
2021/09/29 14:53:14;;;;;;;46.92;39.90;;;;;;;15.67;61.51;100488.25;4876794;28;97274;-85
2021/09/29 14:55:40;;;;;;;47.63;39.75;;;;;;;15.54;61.74;100494.19;4877108;28;96931;-87
2021/09/29 14:58:06;;;;;;;43.85;38.83;;;;;;;15.58;62.20;100497.53;4863098;28;102080;-85
2021/09/29 15:00:33;;;;;;;51.60;38.92;;;;;;;15.57;62.04;100498.47;4858807;28;101595;-86
2021/09/29 15:02:59;;;;;;;47.33;37.67;;;;;;;15.56;62.13;100505.56;4881254;28;96857;-86
2021/09/29 15:05:25;;;;;;;42.80;36.53;;;;;;;15.62;62.17;100507.88;4875077;28;96892;-86
2021/09/29 15:07:51;;;;;;;47.97;34.70;;;;;;;15.59;62.24;100507.16;4877925;28;101447;-86
2021/09/29 15:10:17;;;;;;;47.50;36.20;;;;;;;15.82;61.85;100506.88;4859263;28;101527;-82
2021/09/29 15:12:42;;;;;;;46.88;37.17;;;;;;;15.76;61.35;100498.38;4876325;28;96817;-86
2021/09/29 15:17:42;;;;;;;41.80;34.55;;;;;;;15.52;62.18;100497.84;4876333;28;100243;-85
2021/09/29 15:22:55;;;;;;;51.65;36.95;;;;;;;15.63;62.23;100498.16;4878241;28;96867;-84
2021/09/29 15:47:05;;;;;;;49.33;33.90;;;;;;;14.97;63.60;100512.06;4882814;28;97234;-87
2021/09/29 15:54:52;;;;;;;47.35;35.50;;;;;;;14.95;63.77;100521.84;4876064;28;98143;-86
2021/09/29 16:00:17;;;;;;;45.72;36.28;;;;;;;15.12;63.18;100521.03;4892405;28;101540;-85
2021/09/29 16:05:46;;;;;;;48.53;36.92;;;;;;;15.04;63.12;100517.88;4896104;28;96691;-84
2021/09/29 16:08:20;;;;;;;44.65;35.75;;;;;;;14.94;63.34;100514.84;4873845;28;98144;-84
2021/09/29 16:16:03;;;;;;;44.95;36.03;;;;;;;14.99;64.09;100525.22;4875598;28;96867;-83
2021/09/29 16:31:59;;;;;;;42.35;36.60;;;;;;;14.83;65.03;100541.78;4879290;28;101861;-84
2021/09/29 16:34:32;;;;;;;45.70;36.85;;;;;;;14.85;64.85;100541.75;4875938;28;97427;-90
2021/09/29 16:36:58;;;;;;;51.90;38.33;;;;;;;14.86;64.85;100531.06;4875687;28;96898;-87
2021/09/29 16:39:23;;;;;;;51.80;40.40;;;;;;;14.83;65.13;100539.16;4877133;28;97049;-90
2021/09/29 16:41:49;;;;;;;54.35;41.42;;;;;;;14.84;65.39;100547.97;4873964;28;100850;-87
2021/09/29 16:44:14;;;;;;;50.42;40.05;;;;;;;14.78;65.38;100543.84;4878808;28;98388;-91
2021/09/29 16:46:40;;;;;;;48.40;40.40;;;;;;;14.72;65.55;100546.78;4865051;28;97195;-94
2021/09/29 16:49:08;;;;;;;54.03;39.85;;;;;;;14.78;65.46;100541.19;4887083;28;97107;-93
2021/09/29 16:51:47;;;;;;;51.85;40.67;;;;;;;14.78;65.70;100542.97;4894969;28;100619;-91
2021/09/29 16:54:16;;;;;;;54.92;39.70;;;;;;;14.76;65.34;100550.13;4878195;28;98224;-93
2021/09/29 16:56:43;;;;;;;52.08;38.63;;;;;;;14.78;65.76;100549.13;4882053;28;97204;-92